Time;durP1;ratioP1;P1;durP2;ratioP2;P2;SDS_P1;SDS_P2;PMS_P1;PMS_P2;Temp;Humidity;BMP_temperature;BMP_pressure;BME280_temperature;BME280_humidity;BME280_pressure;Samples;Min_cycle;Max_cycle;Signal;HPM_P1;HPM_P2
2021/07/22 00:00:27;;;;;;;6.45;5.82;;;24.50;59.20;;;;;;5074230;28;20395;-76
2021/07/22 00:02:53;;;;;;;5.68;5.18;;;24.50;59.30;;;;;;5074454;28;20032;-76
2021/07/22 00:05:19;;;;;;;6.72;6.05;;;24.50;59.30;;;;;;5073767;28;20039;-77
2021/07/22 00:07:47;;;;;;;6.68;5.68;;;24.50;59.40;;;;;;5071634;28;20145;-77
2021/07/22 00:10:17;;;;;;;6.93;6.20;;;24.40;59.30;;;;;;5073580;28;20079;-77
2021/07/22 00:12:44;;;;;;;6.30;5.60;;;24.40;59.40;;;;;;5075612;28;20048;-78
2021/07/22 00:15:11;;;;;;;7.80;6.25;;;24.40;59.50;;;;;;5073596;28;20025;-77
2021/07/22 00:17:37;;;;;;;6.47;5.88;;;24.30;59.40;;;;;;5074155;28;20130;-78
2021/07/22 00:20:05;;;;;;;7.97;5.97;;;24.30;59.50;;;;;;5074961;28;20059;-76
2021/07/22 00:22:37;;;;;;;7.10;5.70;;;24.20;59.40;;;;;;5090088;28;20032;-76
2021/07/22 00:25:05;;;;;;;8.80;5.38;;;24.20;59.50;;;;;;5072987;28;20112;-75
2021/07/22 00:27:31;;;;;;;7.43;5.90;;;24.20;59.60;;;;;;5068271;28;20029;-76
2021/07/22 00:29:57;;;;;;;7.20;6.60;;;24.20;59.60;;;;;;5069562;28;20028;-76
2021/07/22 00:32:23;;;;;;;7.13;6.18;;;24.10;59.50;;;;;;5069683;28;20055;-76
2021/07/22 00:34:49;;;;;;;6.57;5.90;;;24.10;59.60;;;;;;5069601;28;20032;-77
2021/07/22 00:37:16;;;;;;;6.78;6.15;;;24.10;59.60;;;;;;5070624;28;20040;-76
2021/07/22 00:39:42;;;;;;;8.48;6.40;;;24.10;59.70;;;;;;5069227;28;20082;-77
2021/07/22 00:42:11;;;;;;;7.40;5.50;;;24.00;59.60;;;;;;5067846;28;20230;-76
2021/07/22 00:44:38;;;;;;;6.93;5.88;;;24.00;59.70;;;;;;5068274;28;20094;-77
2021/07/22 00:47:04;;;;;;;9.00;5.93;;;24.00;59.80;;;;;;5068259;28;20261;-76
2021/07/22 00:49:32;;;;;;;7.68;6.78;;;24.00;59.90;;;;;;5067679;28;20484;-77
2021/07/22 00:52:00;;;;;;;7.13;6.53;;;23.90;59.70;;;;;;5067161;28;20044;-78
2021/07/22 00:54:27;;;;;;;8.30;6.97;;;23.90;59.80;;;;;;5067514;28;20484;-77
2021/07/22 00:56:53;;;;;;;6.97;6.28;;;23.90;59.90;;;;;;5067594;28;20039;-76
2021/07/22 00:59:19;;;;;;;7.95;7.20;;;23.80;59.80;;;;;;5083572;28;20247;-77
2021/07/22 01:01:45;;;;;;;9.25;7.07;;;23.90;60.10;;;;;;5084149;28;20408;-76
2021/07/22 01:04:13;;;;;;;7.75;6.55;;;23.80;59.90;;;;;;5067503;28;20102;-77
2021/07/22 01:06:39;;;;;;;7.15;6.35;;;23.80;60.00;;;;;;5067366;28;20405;-77
2021/07/22 01:09:14;;;;;;;7.95;7.15;;;23.80;60.00;;;;;;5067298;28;20048;-77
2021/07/22 01:11:44;;;;;;;7.30;6.35;;;23.70;59.90;;;;;;5051398;28;20142;-78
2021/07/22 01:14:10;;;;;;;7.22;6.55;;;23.70;60.00;;;;;;5067013;28;20397;-77
2021/07/22 01:16:36;;;;;;;7.47;6.78;;;23.70;60.10;;;;;;5067733;28;20032;-78
2021/07/22 01:19:03;;;;;;;7.97;6.80;;;23.60;60.00;;;;;;5068246;28;20031;-78
2021/07/22 01:21:31;;;;;;;8.10;6.85;;;23.60;60.10;;;;;;5066736;28;20028;-78
2021/07/22 01:23:58;;;;;;;10.13;7.13;;;23.60;60.70;;;;;;5066343;28;20503;-78
2021/07/22 01:26:58;;;;;;;7.70;6.90;;;23.60;60.20;;;;;;5068762;28;20032;-79
2021/07/22 01:29:42;;;;;;;7.90;7.15;;;23.50;60.00;;;;;;5068345;28;20040;-79
2021/07/22 01:32:09;;;;;;;7.63;6.72;;;23.50;60.10;;;;;;5061716;28;20036;-78
2021/07/22 01:34:35;;;;;;;8.25;7.45;;;23.50;60.20;;;;;;5052091;28;20503;-77
2021/07/22 01:37:02;;;;;;;7.05;6.35;;;23.50;60.30;;;;;;5050040;28;20100;-79
2021/07/22 01:39:30;;;;;;;8.57;6.90;;;23.40;60.20;;;;;;5062298;28;20407;-78
2021/07/22 01:41:56;;;;;;;8.45;7.55;;;23.40;60.20;;;;;;5068563;28;20021;-79
2021/07/22 01:44:24;;;;;;;7.63;6.90;;;23.40;60.30;;;;;;5069659;28;20082;-78
2021/07/22 01:46:51;;;;;;;8.95;7.20;;;23.40;60.40;;;;;;5063285;28;20021;-81
2021/07/22 01:49:18;;;;;;;9.45;7.70;;;23.30;60.30;;;;;;5058033;28;20032;-78
2021/07/22 01:51:45;;;;;;;8.18;7.38;;;23.30;60.30;;;;;;5067783;28;20128;-78
2021/07/22 01:54:11;;;;;;;8.70;7.00;;;23.30;60.40;;;;;;5050990;28;20115;-79
2021/07/22 01:56:37;;;;;;;9.10;7.22;;;23.30;60.50;;;;;;5050678;28;20037;-78
2021/07/22 01:59:03;;;;;;;7.75;6.95;;;23.20;60.30;;;;;;5051173;28;20555;-78
2021/07/22 02:01:30;;;;;;;8.13;7.40;;;23.20;60.40;;;;;;5051109;28;20036;-77
2021/07/22 02:04:14;;;;;;;12.40;7.43;;;23.20;60.50;;;;;;5051123;28;20029;-78
2021/07/22 02:06:40;;;;;;;7.65;6.85;;;23.20;60.50;;;;;;5051193;28;20032;-80
2021/07/22 02:09:11;;;;;;;10.88;8.13;;;23.20;60.60;;;;;;5051293;28;20045;-79
2021/07/22 02:11:38;;;;;;;8.48;7.68;;;23.10;60.50;;;;;;5050664;28;20037;-79
2021/07/22 02:14:04;;;;;;;9.10;7.97;;;23.10;60.60;;;;;;5051551;28;20392;-79
2021/07/22 02:16:31;;;;;;;7.93;7.18;;;23.10;60.70;;;;;;5067766;28;20040;-78
2021/07/22 02:18:57;;;;;;;8.95;8.15;;;23.10;60.70;;;;;;5052170;28;20025;-79
2021/07/22 02:21:27;;;;;;;8.07;7.28;;;23.00;60.60;;;;;;5067346;28;20029;-76
2021/07/22 02:23:53;;;;;;;12.32;8.45;;;23.00;60.60;;;;;;5050945;28;20040;-80
2021/07/22 02:26:56;;;;;;;8.63;7.72;;;23.00;60.70;;;;;;5050740;28;20029;-79
2021/07/22 02:29:23;;;;;;;9.20;8.02;;;22.90;60.60;;;;;;5067263;28;20551;-78
2021/07/22 02:31:49;;;;;;;9.50;7.80;;;22.90;60.60;;;;;;5067270;28;20134;-77
2021/07/22 02:34:16;;;;;;;8.38;7.57;;;22.90;60.70;;;;;;5051802;28;20029;-77
2021/07/22 02:36:42;;;;;;;8.65;7.88;;;22.90;60.80;;;;;;5051403;28;20035;-77
2021/07/22 02:39:38;;;;;;;9.25;8.45;;;22.80;60.70;;;;;;5056306;28;20040;-78
2021/07/22 02:42:05;;;;;;;10.25;8.00;;;22.90;60.90;;;;;;5051687;28;20334;-79
2021/07/22 02:44:38;;;;;;;8.65;7.80;;;22.80;60.80;;;;;;5050611;28;20033;-79
2021/07/22 02:47:16;;;;;;;;;;;22.80;60.90;;;;;;5067135;28;20487;-77
2021/07/22 02:49:43;;;;;;;9.80;7.70;;;22.80;60.60;;;;;;5067372;28;19977;-77
2021/07/22 02:52:12;;;;;;;8.82;7.93;;;22.70;60.50;;;;;;5066503;28;20036;-77
2021/07/22 02:54:43;;;;;;;8.73;7.82;;;22.70;60.70;;;;;;5049840;28;20048;-80
2021/07/22 02:57:09;;;;;;;8.60;7.82;;;22.70;60.80;;;;;;5066712;28;20500;-80
2021/07/22 02:59:35;;;;;;;10.23;8.15;;;22.70;60.80;;;;;;5050859;28;20025;-79
2021/07/22 03:02:02;;;;;;;9.50;8.40;;;22.60;60.70;;;;;;5050275;28;20064;-78
2021/07/22 03:04:30;;;;;;;8.30;7.60;;;22.60;60.80;;;;;;5050123;28;20021;-79
2021/07/22 03:07:12;;;;;;;10.75;7.93;;;22.60;60.90;;;;;;5066431;28;20485;-81
2021/07/22 03:09:39;;;;;;;10.45;8.07;;;22.60;61.00;;;;;;5066453;28;20480;-80
2021/07/22 03:12:07;;;;;;;9.48;8.68;;;22.60;61.00;;;;;;5050760;28;20139;-79
2021/07/22 03:14:44;;;;;;;8.57;7.75;;;22.60;61.10;;;;;;5074446;28;20055;-80
2021/07/22 03:17:11;;;;;;;8.73;7.82;;;22.50;61.00;;;;;;5053103;28;20082;-80
2021/07/22 03:19:42;;;;;;;9.27;8.32;;;22.50;61.00;;;;;;5050312;28;20036;-80
2021/07/22 03:22:16;;;;;;;9.55;8.65;;;22.50;61.10;;;;;;5051153;28;20028;-79
2021/07/22 03:24:42;;;;;;;9.85;8.85;;;22.50;61.20;;;;;;5050112;28;20029;-81
2021/07/22 03:27:24;;;;;;;10.65;9.00;;;22.40;61.00;;;;;;5049750;28;20040;-78
2021/07/22 03:29:51;;;;;;;12.25;9.25;;;22.40;61.10;;;;;;5066557;28;20579;-78
2021/07/22 03:32:17;;;;;;;10.10;8.43;;;22.40;61.10;;;;;;5049891;28;20128;-80
2021/07/22 03:34:44;;;;;;;11.50;8.65;;;22.40;61.20;;;;;;5066095;28;20241;-80
2021/07/22 03:37:22;;;;;;;11.18;8.93;;;22.40;61.30;;;;;;5049762;28;20043;-78
2021/07/22 03:39:49;;;;;;;9.63;8.13;;;22.30;61.10;;;;;;5050871;28;20029;-79
2021/07/22 03:42:16;;;;;;;9.45;8.50;;;22.30;61.20;;;;;;5049771;28;20068;-78
2021/07/22 03:45:03;;;;;;;11.18;8.40;;;22.30;61.80;;;;;;5050557;28;20060;-77
2021/07/22 03:47:32;;;;;;;9.35;8.45;;;22.20;61.10;;;;;;5066114;28;20025;-78
2021/07/22 03:49:59;;;;;;;9.60;8.60;;;22.20;61.20;;;;;;5065810;28;20443;-80
2021/07/22 03:52:39;;;;;;;10.07;8.68;;;22.20;61.20;;;;;;5066403;28;20124;-80
2021/07/22 03:55:05;;;;;;;11.18;8.93;;;22.20;61.20;;;;;;5048821;28;20029;-79
2021/07/22 03:57:37;;;;;;;9.15;8.23;;;22.20;61.30;;;;;;5049654;28;20029;-80
2021/07/22 04:00:04;;;;;;;9.23;8.38;;;22.20;61.40;;;;;;5050490;28;20032;-78
2021/07/22 04:02:41;;;;;;;9.77;8.77;;;22.20;61.50;;;;;;5050796;28;20029;-78
2021/07/22 04:05:10;;;;;;;10.57;9.13;;;22.10;61.30;;;;;;5066058;28;20055;-78
2021/07/22 04:07:38;;;;;;;8.82;7.97;;;22.10;61.30;;;;;;5049099;28;20045;-81
2021/07/22 04:10:10;;;;;;;9.23;8.43;;;22.10;61.40;;;;;;5049712;28;20036;-81
2021/07/22 04:13:00;;;;;;;9.65;8.63;;;22.10;61.50;;;;;;5047056;28;20045;-81
2021/07/22 04:15:34;;;;;;;11.27;9.30;;;22.10;61.50;;;;;;5065616;28;20483;-81
2021/07/22 04:18:21;;;;;;;9.88;8.98;;;22.00;61.40;;;;;;5066142;28;20083;-80
2021/07/22 04:21:17;;;;;;;10.50;8.75;;;22.00;61.40;;;;;;5049486;28;20073;-78
2021/07/22 04:23:55;;;;;;;10.18;9.20;;;22.00;61.40;;;;;;5050058;28;20091;-77
2021/07/22 04:26:53;;;;;;;10.57;9.48;;;22.00;61.50;;;;;;5059377;28;20263;-80
2021/07/22 04:29:34;;;;;;;10.20;9.20;;;21.90;61.30;;;;;;5050509;28;20025;-79
2021/07/22 04:32:02;;;;;;;8.77;7.88;;;21.90;61.40;;;;;;5049095;28;20037;-78
2021/07/22 04:34:39;;;;;;;11.10;8.90;;;21.90;61.50;;;;;;5050464;28;20492;-78
2021/07/22 04:37:09;;;;;;;9.43;8.55;;;21.90;61.50;;;;;;5068332;28;20033;-78
2021/07/22 04:40:02;;;;;;;12.73;9.57;;;21.90;61.60;;;;;;5054448;28;20036;-77
2021/07/22 04:42:47;;;;;;;10.55;9.50;;;21.90;61.60;;;;;;5070868;28;20029;-76
2021/07/22 04:45:26;;;;;;;11.07;9.63;;;21.90;61.60;;;;;;5072638;28;20032;-80
2021/07/22 04:48:13;;;;;;;9.68;8.80;;;21.90;61.70;;;;;;5068441;28;20043;-77
2021/07/22 04:50:51;;;;;;;10.80;9.77;;;21.80;61.50;;;;;;5060449;28;20054;-78
2021/07/22 04:53:26;;;;;;;10.07;9.10;;;21.80;61.60;;;;;;5053563;28;20567;-78
2021/07/22 04:56:05;;;;;;;11.65;9.27;;;21.80;61.60;;;;;;5055908;28;20510;-77
2021/07/22 04:58:34;;;;;;;11.63;9.63;;;21.80;61.70;;;;;;5069035;28;20123;-79
2021/07/22 05:01:05;;;;;;;10.00;9.00;;;21.80;61.70;;;;;;5069814;28;20031;-79
2021/07/22 05:03:32;;;;;;;10.00;9.00;;;21.80;61.80;;;;;;5072514;28;20125;-77
2021/07/22 05:05:58;;;;;;;9.70;8.70;;;21.80;61.80;;;;;;5068794;28;20430;-77
2021/07/22 05:08:24;;;;;;;11.35;8.60;;;21.80;61.80;;;;;;5068437;28;20094;-78
2021/07/22 05:11:16;;;;;;;9.35;8.55;;;21.80;61.90;;;;;;5065504;28;20052;-77
2021/07/22 05:14:02;;;;;;;11.05;9.30;;;21.80;61.90;;;;;;5068534;28;20396;-79
2021/07/22 05:16:46;;;;;;;10.15;8.80;;;21.80;61.90;;;;;;5055468;28;20442;-77
2021/07/22 05:19:17;;;;;;;11.57;10.02;;;21.80;61.90;;;;;;5067319;28;20032;-76
2021/07/22 05:22:03;;;;;;;9.70;8.77;;;21.80;61.90;;;;;;5067053;28;20396;-77
2021/07/22 05:24:48;;;;;;;9.85;8.85;;;21.80;61.90;;;;;;5067498;28;20069;-77
2021/07/22 05:27:28;;;;;;;10.60;9.60;;;21.80;61.90;;;;;;5061872;28;20768;-77
2021/07/22 05:30:12;;;;;;;10.57;9.52;;;21.80;62.00;;;;;;5055995;28;20064;-77
2021/07/22 05:32:49;;;;;;;12.02;10.20;;;21.80;62.10;;;;;;5067255;28;20514;-84
2021/07/22 05:35:44;;;;;;;10.32;9.23;;;21.80;62.20;;;;;;5054372;28;20456;-78
2021/07/22 05:38:31;;;;;;;11.93;9.88;;;21.90;62.40;;;;;;5068099;28;20096;-78
2021/07/22 05:41:16;;;;;;;12.60;11.40;;;21.90;62.40;;;;;;5067241;28;20035;-77
2021/07/22 05:43:42;;;;;;;16.33;13.82;;;21.90;63.10;;;;;;5068076;28;20082;-77
2021/07/22 05:46:07;;;;;;;15.00;12.60;;;21.90;63.30;;;;;;5067391;28;20036;-81
2021/07/22 05:48:33;;;;;;;17.98;13.00;;;21.90;63.90;;;;;;5061716;28;20033;-77
2021/07/22 05:51:00;;;;;;;16.17;14.02;;;22.00;65.10;;;;;;5068177;28;20032;-74
2021/07/22 05:53:26;;;;;;;15.75;13.68;;;22.00;65.00;;;;;;5050116;28;20093;-76
2021/07/22 05:55:57;;;;;;;20.88;13.60;;;22.10;65.50;;;;;;5067182;28;20484;-78
2021/07/22 05:58:23;;;;;;;14.77;13.02;;;22.10;65.90;;;;;;5067969;28;20060;-78
2021/07/22 06:00:49;;;;;;;15.15;13.48;;;22.10;66.00;;;;;;5067084;28;20166;-77
2021/07/22 06:03:15;;;;;;;19.45;15.55;;;22.10;66.30;;;;;;5062787;28;20115;-79
2021/07/22 06:05:41;;;;;;;16.83;14.27;;;22.20;66.70;;;;;;5062814;28;20027;-78
2021/07/22 06:08:06;;;;;;;16.67;14.90;;;22.20;66.90;;;;;;5055580;28;20051;-79
2021/07/22 06:10:32;;;;;;;16.13;14.25;;;22.30;67.40;;;;;;5067717;28;20799;-82
2021/07/22 06:12:59;;;;;;;19.52;13.98;;;22.30;67.50;;;;;;5066327;28;20040;-77
2021/07/22 06:15:25;;;;;;;15.15;13.63;;;22.30;67.80;;;;;;5083017;28;20025;-78
2021/07/22 06:17:51;;;;;;;15.73;14.00;;;22.40;68.20;;;;;;5082582;28;20079;-81
2021/07/22 06:20:17;;;;;;;15.35;13.68;;;22.40;68.30;;;;;;5083072;28;20024;-78
2021/07/22 06:22:44;;;;;;;15.05;13.35;;;22.50;68.70;;;;;;5065336;28;20036;-79
2021/07/22 06:25:14;;;;;;;19.17;13.73;;;22.50;68.80;;;;;;5062626;28;20480;-79
2021/07/22 06:27:43;;;;;;;18.55;15.35;;;22.60;69.10;;;;;;5066798;28;20131;-78
2021/07/22 06:30:10;;;;;;;16.67;14.98;;;22.70;69.40;;;;;;5041080;28;20427;-79
2021/07/22 06:32:37;;;;;;;19.88;15.60;;;22.70;69.40;;;;;;5058493;28;20066;-79
2021/07/22 06:35:04;;;;;;;17.40;14.52;;;22.90;69.70;;;;;;5065197;28;20549;-80
2021/07/22 06:37:42;;;;;;;14.85;13.15;;;22.90;69.80;;;;;;5062716;28;20041;-79
2021/07/22 06:40:09;;;;;;;17.67;14.63;;;23.00;70.10;;;;;;5056058;28;20036;-79
2021/07/22 06:42:35;;;;;;;17.83;16.05;;;23.10;70.00;;;;;;5055652;28;20138;-80
2021/07/22 06:45:02;;;;;;;17.10;15.32;;;23.30;70.30;;;;;;5064177;28;20056;-78
2021/07/22 06:47:28;;;;;;;19.85;17.02;;;23.30;70.20;;;;;;5063225;28;20223;-79
2021/07/22 06:49:54;;;;;;;21.98;18.73;;;23.60;70.60;;;;;;5065665;28;20136;-79
2021/07/22 06:52:20;;;;;;;18.95;16.98;;;23.70;70.60;;;;;;5066399;28;20500;-80
2021/07/22 06:54:45;;;;;;;21.58;17.38;;;23.80;70.60;;;;;;5065978;28;20041;-81
2021/07/22 06:57:11;;;;;;;16.98;15.18;;;24.00;70.70;;;;;;5066533;28;20039;-84
2021/07/22 06:59:37;;;;;;;19.00;17.13;;;24.30;70.80;;;;;;5066483;28;20046;-78
2021/07/22 07:02:03;;;;;;;22.13;16.17;;;24.50;70.70;;;;;;5065853;28;20033;-84
2021/07/22 07:04:29;;;;;;;25.40;17.75;;;24.80;70.70;;;;;;5066080;28;20048;-80
2021/07/22 07:06:55;;;;;;;19.65;16.40;;;25.00;70.40;;;;;;5067144;28;20064;-83
2021/07/22 07:09:21;;;;;;;19.30;16.63;;;25.30;69.90;;;;;;5066826;28;20060;-84
2021/07/22 07:11:47;;;;;;;19.45;17.52;;;25.50;69.40;;;;;;5064820;28;20094;-83
2021/07/22 07:14:13;;;;;;;20.77;16.80;;;25.70;68.90;;;;;;5066558;28;20032;-84
2021/07/22 07:16:40;;;;;;;27.35;17.50;;;26.00;68.50;;;;;;5065417;28;20395;-83
2021/07/22 07:19:09;;;;;;;20.38;16.92;;;26.20;67.90;;;;;;5066504;28;20067;-78
2021/07/22 07:21:39;;;;;;;22.40;15.45;;;26.40;67.40;;;;;;5063656;28;20071;-77
2021/07/22 07:24:05;;;;;;;23.08;16.05;;;26.70;67.00;;;;;;5064201;28;20434;-78
2021/07/22 07:26:32;;;;;;;17.42;15.55;;;26.90;66.40;;;;;;5064571;28;20051;-79
2021/07/22 07:28:58;;;;;;;17.02;13.35;;;27.10;65.90;;;;;;5066181;28;20062;-77
2021/07/22 07:31:24;;;;;;;18.13;16.02;;;27.40;65.60;;;;;;5048199;28;20401;-78
2021/07/22 07:33:50;;;;;;;15.10;13.32;;;27.50;65.00;;;;;;5064187;28;20531;-78
2021/07/22 07:36:17;;;;;;;15.57;13.60;;;27.80;64.70;;;;;;5059799;28;20040;-77
2021/07/22 07:38:43;;;;;;;16.15;13.45;;;28.00;64.10;;;;;;5055682;28;20259;-77
2021/07/22 07:41:09;;;;;;;17.95;14.75;;;28.20;63.40;;;;;;5066594;28;20107;-78
2021/07/22 07:43:35;;;;;;;15.23;12.40;;;28.40;62.70;;;;;;5065702;28;20449;-76
2021/07/22 07:46:01;;;;;;;13.93;12.55;;;28.70;62.30;;;;;;5064844;28;20025;-80
2021/07/22 07:48:27;;;;;;;14.35;12.52;;;28.90;61.60;;;;;;5065885;28;20044;-82
2021/07/22 07:50:53;;;;;;;14.48;12.95;;;29.10;60.90;;;;;;5065771;28;20078;-78
2021/07/22 07:53:19;;;;;;;15.73;12.43;;;29.30;60.30;;;;;;5064614;28;20541;-77
2021/07/22 07:55:47;;;;;;;13.32;11.95;;;29.60;59.80;;;;;;5064445;28;20116;-79
2021/07/22 07:58:13;;;;;;;16.58;11.38;;;29.80;59.20;;;;;;5065486;28;20049;-78
2021/07/22 08:00:40;;;;;;;14.38;11.93;;;30.00;58.60;;;;;;5063901;28;20036;-78
2021/07/22 08:03:18;;;;;;;19.35;12.32;;;30.20;58.00;;;;;;5063700;28;20040;-83
2021/07/22 08:05:44;;;;;;;15.23;12.13;;;30.40;57.20;;;;;;5064967;28;20060;-76
2021/07/22 08:08:10;;;;;;;14.45;12.15;;;30.70;56.70;;;;;;5065660;28;20059;-78
2021/07/22 08:10:40;;;;;;;13.13;11.82;;;30.90;56.10;;;;;;5064051;28;20040;-79
2021/07/22 08:13:07;;;;;;;14.75;11.15;;;31.10;55.50;;;;;;5069779;28;20086;-78
2021/07/22 08:15:33;;;;;;;14.40;11.35;;;31.30;55.00;;;;;;5069080;28;20024;-80
2021/07/22 08:17:59;;;;;;;15.35;12.63;;;31.50;54.50;;;;;;5069871;28;20040;-79
2021/07/22 08:20:25;;;;;;;13.77;11.98;;;31.60;53.80;;;;;;5068561;28;20028;-80
2021/07/22 08:22:51;;;;;;;21.10;12.55;;;31.80;53.30;;;;;;5069806;28;20044;-80
2021/07/22 08:25:17;;;;;;;17.33;11.57;;;32.00;52.80;;;;;;5069587;28;20028;-80
2021/07/22 08:27:44;;;;;;;12.63;11.25;;;32.20;52.30;;;;;;5067995;28;20552;-75
2021/07/22 08:30:11;;;;;;;14.10;12.13;;;32.40;51.90;;;;;;5068952;28;20032;-76
2021/07/22 08:32:37;;;;;;;16.52;12.65;;;32.60;51.40;;;;;;5068953;28;20039;-77
2021/07/22 08:35:04;;;;;;;12.88;11.57;;;32.90;50.90;;;;;;5069086;28;20056;-76
2021/07/22 08:37:30;;;;;;;12.35;11.05;;;33.10;50.50;;;;;;5069605;28;20395;-77
2021/07/22 08:40:01;;;;;;;17.40;11.82;;;33.20;50.00;;;;;;5068270;28;20373;-76
2021/07/22 08:42:30;;;;;;;14.73;12.27;;;33.50;49.50;;;;;;5068432;28;20032;-76
2021/07/22 08:44:56;;;;;;;16.60;11.55;;;33.60;48.80;;;;;;5069510;28;20454;-76
2021/07/22 08:47:23;;;;;;;13.30;10.95;;;33.80;48.40;;;;;;5069650;28;20036;-78
2021/07/22 08:49:49;;;;;;;16.33;11.15;;;33.90;48.10;;;;;;5069188;28;20518;-77
2021/07/22 08:52:15;;;;;;;12.77;11.43;;;34.00;48.30;;;;;;5068752;28;20032;-75
2021/07/22 08:54:41;;;;;;;13.55;10.98;;;34.00;47.40;;;;;;5068838;28;20028;-78
2021/07/22 08:57:09;;;;;;;14.40;11.95;;;34.00;47.30;;;;;;5069482;28;20502;-75
2021/07/22 08:59:36;;;;;;;15.05;11.95;;;33.90;47.20;;;;;;5068606;28;20044;-78
2021/07/22 09:02:03;;;;;;;14.00;11.10;;;33.90;47.00;;;;;;5076566;28;20040;-79
2021/07/22 09:04:30;;;;;;;15.90;11.15;;;33.90;46.90;;;;;;5065652;28;20395;-81
2021/07/22 09:06:56;;;;;;;15.07;11.27;;;33.80;46.80;;;;;;5054289;28;20546;-77
2021/07/22 09:09:23;;;;;;;14.25;10.60;;;33.70;46.80;;;;;;5068411;28;20392;-76
2021/07/22 09:12:00;;;;;;;13.57;10.43;;;33.60;47.10;;;;;;5065241;28;20036;-79
2021/07/22 09:14:29;;;;;;;13.75;11.10;;;33.40;47.30;;;;;;5068877;28;20060;-76
2021/07/22 09:16:56;;;;;;;14.00;10.43;;;33.10;47.50;;;;;;5068471;28;20032;-79
2021/07/22 09:19:37;;;;;;;11.82;10.55;;;32.90;47.90;;;;;;5068554;28;20024;-77
2021/07/22 09:22:05;;;;;;;12.82;10.75;;;32.70;48.30;;;;;;5067789;28;20040;-78
2021/07/22 09:24:47;;;;;;;12.57;10.95;;;32.50;48.60;;;;;;5066215;28;20854;-75
2021/07/22 09:27:39;;;;;;;13.57;11.05;;;32.40;49.00;;;;;;5068653;28;20037;-75
2021/07/22 09:30:25;;;;;;;13.45;10.93;;;32.30;49.30;;;;;;5068162;28;20558;-79
2021/07/22 09:32:52;;;;;;;11.43;9.85;;;32.20;49.50;;;;;;5067650;28;20339;-76
2021/07/22 09:35:20;;;;;;;14.70;10.23;;;32.20;49.40;;;;;;5067834;28;20032;-76
2021/07/22 09:37:52;;;;;;;13.73;11.15;;;32.20;49.20;;;;;;5068543;28;20112;-77
2021/07/22 09:40:29;;;;;;;14.05;11.35;;;32.30;49.00;;;;;;5068009;28;20432;-75
2021/07/22 09:42:55;;;;;;;16.63;11.50;;;32.30;48.90;;;;;;5068223;28;20129;-75
2021/07/22 09:45:35;;;;;;;12.25;10.98;;;32.30;49.00;;;;;;5066939;28;20032;-76
2021/07/22 09:48:09;;;;;;;11.35;10.15;;;32.10;48.90;;;;;;5066885;28;20028;-77
2021/07/22 09:50:43;;;;;;;13.65;10.77;;;32.10;49.20;;;;;;5067236;28;20059;-80
2021/07/22 09:53:14;;;;;;;15.63;10.43;;;32.00;49.30;;;;;;5068076;28;20457;-76
2021/07/22 09:55:42;;;;;;;12.38;11.07;;;32.00;49.50;;;;;;5066505;28;20124;-76
2021/07/22 09:58:10;;;;;;;15.68;9.88;;;31.90;49.50;;;;;;5066456;28;20404;-76
2021/07/22 10:00:40;;;;;;;13.88;10.52;;;31.90;49.70;;;;;;5066573;28;20020;-76
2021/07/22 10:03:15;;;;;;;16.35;11.02;;;31.80;49.50;;;;;;5066204;28;20685;-76
2021/07/22 10:06:10;;;;;;;10.88;9.68;;;31.80;49.60;;;;;;5068110;28;20326;-76
2021/07/22 10:08:38;;;;;;;12.40;10.48;;;31.80;49.60;;;;;;5058182;28;20514;-77
2021/07/22 10:11:05;;;;;;;12.63;10.45;;;31.80;49.60;;;;;;5066880;28;20036;-79
2021/07/22 10:13:44;;;;;;;12.88;10.23;;;31.80;49.70;;;;;;5067315;28;20044;-75
2021/07/22 10:16:16;;;;;;;11.18;9.98;;;31.80;49.70;;;;;;5066056;28;20484;-75
2021/07/22 10:18:47;;;;;;;14.45;10.80;;;31.90;49.70;;;;;;5067160;28;20476;-78
2021/07/22 10:21:14;;;;;;;11.23;9.73;;;31.90;49.70;;;;;;5067558;28;20043;-75
2021/07/22 10:23:41;;;;;;;13.35;10.05;;;31.90;49.50;;;;;;5066956;28;20120;-74
2021/07/22 10:26:08;;;;;;;11.20;10.00;;;31.90;49.60;;;;;;5067129;28;20060;-74
2021/07/22 10:28:35;;;;;;;16.30;10.30;;;32.00;49.70;;;;;;5059010;28;20032;-76
2021/07/22 10:31:07;;;;;;;14.70;11.00;;;32.00;49.50;;;;;;5053277;28;20488;-76
2021/07/22 10:33:36;;;;;;;14.52;9.52;;;32.00;49.40;;;;;;5053675;28;20042;-75
2021/07/22 10:36:03;;;;;;;10.32;9.32;;;32.10;49.50;;;;;;5066109;28;20108;-76
2021/07/22 10:38:47;;;;;;;13.88;9.95;;;32.10;49.50;;;;;;5066395;28;20032;-74
2021/07/22 10:41:38;;;;;;;10.80;9.77;;;32.10;49.30;;;;;;5066761;28;20024;-76
2021/07/22 10:44:31;;;;;;;12.18;9.57;;;32.10;49.10;;;;;;5063871;28;20047;-74
2021/07/22 10:47:00;;;;;;;12.07;10.55;;;32.20;49.30;;;;;;5066712;28;20100;-75
2021/07/22 10:49:42;;;;;;;14.63;9.88;;;32.30;49.40;;;;;;5056220;28;20035;-75
2021/07/22 10:52:11;;;;;;;12.15;10.07;;;32.20;49.40;;;;;;5058965;28;20040;-76
2021/07/22 10:54:40;;;;;;;11.43;9.35;;;32.30;49.50;;;;;;5066083;28;20032;-74
2021/07/22 10:57:07;;;;;;;13.07;10.10;;;32.40;49.50;;;;;;5065273;28;20526;-76
2021/07/22 11:00:04;;;;;;;12.57;9.70;;;32.40;49.40;;;;;;5066656;28;20027;-74
2021/07/22 11:02:44;;;;;;;14.07;10.02;;;32.50;49.30;;;;;;5066368;28;20094;-76
2021/07/22 11:05:53;;;;;;;15.98;10.02;;;32.60;49.10;;;;;;5064762;28;20479;-74
2021/07/22 11:08:25;;;;;;;14.30;10.38;;;32.60;49.20;;;;;;5065566;28;20044;-74
2021/07/22 11:10:54;;;;;;;19.40;10.25;;;32.70;49.20;;;;;;5065887;28;20115;-76
2021/07/22 11:13:37;;;;;;;16.55;9.50;;;32.80;49.10;;;;;;5066252;28;20060;-77
2021/07/22 11:16:11;;;;;;;13.93;10.20;;;32.90;49.10;;;;;;5065934;28;20483;-78
2021/07/22 11:18:43;;;;;;;12.60;10.00;;;32.90;48.90;;;;;;5065907;28;20326;-77
2021/07/22 11:21:10;;;;;;;15.95;9.90;;;33.00;48.90;;;;;;5064460;28;20507;-75
2021/07/22 11:23:37;;;;;;;14.75;10.52;;;33.10;48.90;;;;;;5066291;28;20042;-77
2021/07/22 11:26:03;;;;;;;13.70;9.70;;;33.10;49.10;;;;;;5064505;28;20032;-76
2021/07/22 11:28:29;;;;;;;10.40;9.38;;;33.20;49.00;;;;;;5065660;28;20476;-76
2021/07/22 11:31:06;;;;;;;12.73;9.45;;;33.30;48.90;;;;;;5066422;28;20044;-79
2021/07/22 11:33:35;;;;;;;14.20;10.25;;;33.30;48.60;;;;;;5063927;28;20129;-76
2021/07/22 11:36:04;;;;;;;11.68;8.82;;;33.40;48.40;;;;;;5058420;28;20028;-76
2021/07/22 11:38:32;;;;;;;10.35;9.02;;;33.50;48.20;;;;;;5054312;28;20040;-75
2021/07/22 11:40:58;;;;;;;10.50;8.90;;;33.60;48.20;;;;;;5054417;28;20059;-77
2021/07/22 11:43:42;;;;;;;9.68;8.40;;;33.60;47.80;;;;;;5056336;28;20029;-76
2021/07/22 11:46:34;;;;;;;11.90;9.20;;;33.60;47.60;;;;;;5064146;28;20097;-75
2021/07/22 11:49:14;;;;;;;18.38;9.95;;;33.70;47.50;;;;;;5060589;28;20062;-79
2021/07/22 11:51:42;;;;;;;16.33;9.80;;;33.70;47.10;;;;;;5066073;28;20041;-80
2021/07/22 11:54:08;;;;;;;12.23;9.45;;;33.80;46.90;;;;;;5055193;28;20480;-74
2021/07/22 11:56:36;;;;;;;16.92;9.27;;;33.80;46.80;;;;;;5045448;28;20025;-76
2021/07/22 11:59:07;;;;;;;10.93;8.68;;;33.90;46.60;;;;;;5057985;28;20032;-74
2021/07/22 12:01:46;;;;;;;13.05;8.43;;;33.90;46.70;;;;;;5066585;28;20032;-74
2021/07/22 12:04:12;;;;;;;10.65;9.30;;;34.00;46.40;;;;;;5065400;28;20112;-76
2021/07/22 12:06:38;;;;;;;9.82;8.73;;;34.00;46.00;;;;;;5065853;28;20028;-76
2021/07/22 12:09:05;;;;;;;10.10;8.70;;;34.10;45.90;;;;;;5065514;28;20075;-75
2021/07/22 12:11:43;;;;;;;15.18;8.60;;;34.10;46.20;;;;;;5065011;28;20376;-75
2021/07/22 12:14:10;;;;;;;10.00;9.00;;;34.20;45.50;;;;;;5080965;28;20038;-75
2021/07/22 12:16:36;;;;;;;12.23;8.63;;;34.30;45.40;;;;;;5065552;28;20032;-74
2021/07/22 12:19:02;;;;;;;11.80;8.07;;;34.20;45.10;;;;;;5063122;28;20469;-73
2021/07/22 12:21:29;;;;;;;9.43;8.52;;;34.10;45.00;;;;;;5065362;28;20036;-78
2021/07/22 12:24:15;;;;;;;10.73;8.35;;;33.90;44.90;;;;;;5065568;28;20032;-74
2021/07/22 12:26:41;;;;;;;11.48;8.02;;;33.90;44.90;;;;;;5064944;28;20025;-77
2021/07/22 12:29:07;;;;;;;9.13;8.23;;;33.90;44.90;;;;;;5065320;28;20032;-76
2021/07/22 12:31:38;;;;;;;10.07;8.40;;;33.80;44.90;;;;;;5065549;28;20402;-74
2021/07/22 12:34:05;;;;;;;13.45;7.97;;;33.70;44.90;;;;;;5066696;28;20040;-77
2021/07/22 12:36:33;;;;;;;12.15;8.65;;;33.60;45.40;;;;;;5085528;28;20047;-75
2021/07/22 12:39:08;;;;;;;9.23;8.18;;;33.60;44.30;;;;;;5070548;28;20314;-74
2021/07/22 12:41:34;;;;;;;11.80;8.75;;;33.50;44.10;;;;;;5063870;28;20028;-74
2021/07/22 12:44:00;;;;;;;11.95;7.60;;;33.60;44.40;;;;;;5065300;28;20039;-84
2021/07/22 12:46:30;;;;;;;10.35;8.23;;;33.60;44.30;;;;;;5065456;28;20029;-75
2021/07/22 12:48:57;;;;;;;9.82;8.25;;;33.80;44.00;;;;;;5063576;28;20040;-75
2021/07/22 12:51:23;;;;;;;9.48;8.18;;;34.00;43.70;;;;;;5065051;28;20041;-78
2021/07/22 12:53:50;;;;;;;11.00;8.93;;;34.10;43.60;;;;;;5064839;28;20120;-81